createdAt,value
2017-11-21T00:00:27.069Z,81.61
2017-11-21T00:03:02.197Z,81.67
2017-11-21T00:05:36.728Z,81.81
2017-11-21T00:08:11.133Z,81.01
2017-11-21T00:10:45.503Z,80.63
2017-11-21T00:13:20.008Z,80.81
2017-11-21T00:15:54.381Z,81.03
2017-11-21T00:18:28.938Z,81.63
2017-11-21T00:21:03.307Z,81.09
2017-11-21T00:23:37.811Z,81.99
2017-11-21T00:26:12.175Z,81.04
2017-11-21T00:28:46.730Z,81.45
2017-11-21T00:31:21.096Z,81.29
2017-11-21T00:33:55.639Z,81.54
2017-11-21T00:36:30.057Z,81.57
2017-11-21T00:39:04.760Z,80.73
2017-11-21T00:41:39.135Z,81.94
2017-11-21T00:44:13.730Z,83.22
2017-11-21T00:46:48.131Z,83.01
2017-11-21T00:49:22.641Z,82.88
2017-11-21T00:51:57.037Z,82.97
2017-11-21T00:54:31.399Z,83.60
2017-11-21T00:57:05.791Z,83.50
2017-11-21T00:59:40.298Z,84.53
2017-11-21T01:02:14.345Z,84.27
2017-11-21T01:04:49.594Z,84.54
2017-11-21T01:07:24.086Z,84.98
2017-11-21T01:09:58.696Z,84.50
2017-11-21T01:12:33.503Z,84.58
2017-11-21T01:15:11.428Z,84.65
2017-11-21T01:17:45.876Z,85.30
2017-11-21T01:20:20.718Z,85.90
2017-11-21T01:22:55.123Z,86.88
2017-11-21T01:25:29.517Z,87.43
2017-11-21T01:28:04.015Z,87.78
2017-11-21T01:30:38.399Z,88.09
2017-11-21T01:33:13.035Z,88.49
2017-11-21T01:35:47.383Z,88.67
2017-11-21T01:38:21.869Z,88.78
2017-11-21T01:40:56.284Z,89.31
2017-11-21T01:43:30.818Z,89.30
2017-11-21T01:46:05.310Z,89.32
2017-11-21T01:48:39.688Z,89.29
2017-11-21T01:51:14.422Z,89.08
2017-11-21T01:53:48.804Z,89.49
2017-11-21T01:56:23.210Z,89.20
2017-11-21T01:58:57.706Z,88.88
2017-11-21T02:01:32.490Z,88.98
2017-11-21T02:04:07.240Z,88.68
2017-11-21T02:06:41.595Z,88.07
2017-11-21T02:09:16.131Z,87.82
2017-11-21T02:11:50.484Z,87.53
2017-11-21T02:14:24.964Z,87.31
2017-11-21T02:16:59.376Z,87.00
2017-11-21T02:19:33.820Z,87.05
2017-11-21T02:22:07.965Z,87.43
2017-11-21T02:24:42.149Z,87.54
2017-11-21T02:27:16.618Z,87.69
2017-11-21T02:29:50.778Z,87.76
2017-11-21T02:32:25.189Z,88.09
2017-11-21T02:34:59.663Z,88.24
2017-11-21T02:37:33.776Z,87.53
2017-11-21T02:40:15.423Z,88.15
2017-11-21T02:42:49.668Z,88.42
2017-11-21T02:45:23.755Z,88.78
2017-11-21T02:47:58.338Z,88.74
2017-11-21T02:50:32.488Z,89.04
2017-11-21T02:53:06.699Z,88.54
2017-11-21T02:55:41.059Z,89.00
2017-11-21T02:58:15.038Z,88.48
2017-11-21T03:00:49.590Z,88.20
2017-11-21T03:03:24.149Z,88.24
2017-11-21T03:05:58.587Z,88.77
2017-11-21T03:08:32.970Z,88.84
2017-11-21T03:11:07.080Z,88.58
2017-11-21T03:13:41.474Z,88.99
2017-11-21T03:16:15.619Z,89.31
2017-11-21T03:18:51.015Z,89.14
2017-11-21T03:21:36.677Z,88.77
2017-11-21T03:24:22.355Z,88.63
2017-11-21T03:30:10.375Z,88.80
2017-11-21T03:32:45.134Z,88.01
2017-11-21T03:35:19.508Z,87.82
2017-11-21T03:37:53.666Z,87.82
2017-11-21T03:40:28.046Z,87.75
2017-11-21T03:43:02.503Z,88.23
2017-11-21T03:45:36.923Z,87.81
2017-11-21T03:48:11.349Z,88.26
2017-11-21T03:50:45.728Z,87.70
2017-11-21T03:53:20.251Z,87.82
2017-11-21T03:55:54.612Z,87.57
2017-11-21T03:58:29.091Z,87.54
2017-11-21T04:01:03.186Z,87.11
2017-11-21T04:03:37.775Z,87.12
2017-11-21T04:06:12.165Z,86.44
2017-11-21T04:08:46.764Z,86.97
2017-11-21T04:11:21.227Z,86.80
2017-11-21T04:13:55.732Z,87.63
2017-11-21T04:16:30.170Z,87.79
2017-11-21T04:19:04.685Z,87.32
2017-11-21T04:21:39.233Z,87.78
2017-11-21T04:24:13.689Z,88.25
2017-11-21T04:26:48.383Z,88.30
2017-11-21T04:29:22.919Z,88.44
2017-11-21T04:31:57.279Z,88.28
2017-11-21T04:34:31.990Z,87.72
2017-11-21T04:37:06.564Z,88.39
2017-11-21T04:39:41.502Z,88.74
2017-11-21T04:42:16.294Z,88.50
2017-11-21T04:44:50.798Z,88.44
2017-11-21T04:47:25.165Z,88.57
2017-11-21T04:49:59.630Z,88.44
2017-11-21T04:52:33.995Z,88.48
2017-11-21T04:55:11.123Z,88.28
2017-11-21T04:57:45.470Z,88.91
2017-11-21T05:00:20.315Z,89.09
2017-11-21T05:02:54.912Z,89.56
2017-11-21T05:05:29.016Z,90.01
2017-11-21T05:08:03.636Z,89.79
2017-11-21T05:10:38.238Z,89.63
2017-11-21T05:13:12.725Z,90.00
2017-11-21T05:15:47.184Z,90.26
2017-11-21T05:18:21.651Z,90.63
2017-11-21T05:20:55.791Z,90.13
2017-11-21T05:23:30.267Z,90.26
2017-11-21T05:26:04.699Z,90.00
2017-11-21T05:28:39.295Z,90.36
2017-11-21T05:31:13.763Z,90.30
2017-11-21T05:33:48.301Z,90.39
2017-11-21T05:36:22.679Z,90.43
2017-11-21T05:38:57.183Z,91.06
2017-11-21T05:41:32.062Z,90.95
2017-11-21T05:44:06.343Z,91.06
2017-11-21T05:46:40.750Z,91.31
2017-11-21T05:49:15.300Z,91.07
2017-11-21T05:51:49.602Z,91.21
2017-11-21T05:54:24.194Z,90.74
2017-11-21T05:56:58.620Z,90.84
2017-11-21T05:59:33.174Z,91.47
2017-11-21T06:02:07.629Z,91.43
2017-11-21T06:04:42.188Z,91.54
2017-11-21T06:07:16.554Z,91.79
2017-11-21T06:09:51.140Z,91.68
2017-11-21T06:12:25.611Z,90.52
2017-11-21T06:15:00.095Z,90.94
2017-11-21T06:17:34.535Z,90.92
2017-11-21T06:20:16.208Z,91.15
2017-11-21T06:22:50.807Z,91.30
2017-11-21T06:25:25.199Z,90.22
2017-11-21T06:27:59.689Z,90.64
2017-11-21T06:30:34.617Z,90.95
2017-11-21T06:33:09.131Z,90.50
2017-11-21T06:35:43.591Z,90.97
2017-11-21T06:38:18.228Z,91.42
2017-11-21T06:40:52.935Z,91.48
2017-11-21T06:43:27.377Z,90.60
2017-11-21T06:46:01.839Z,89.80
2017-11-21T06:48:36.206Z,90.30
2017-11-21T06:51:10.608Z,90.92
2017-11-21T06:53:45.599Z,90.71
2017-11-21T06:56:20.039Z,91.21
2017-11-21T06:58:54.434Z,90.58
2017-11-21T07:01:28.836Z,90.49
2017-11-21T07:04:03.389Z,91.02
2017-11-21T07:06:37.811Z,91.15
2017-11-21T07:09:12.199Z,90.78
2017-11-21T07:11:46.619Z,91.42
2017-11-21T07:14:21.217Z,90.87
2017-11-21T07:16:55.670Z,91.17
2017-11-21T07:19:30.171Z,90.87
2017-11-21T07:22:04.552Z,90.94
2017-11-21T07:24:39.109Z,91.08
2017-11-21T07:27:13.578Z,92.22
2017-11-21T07:29:48.060Z,92.64
2017-11-21T07:32:22.416Z,92.33
2017-11-21T07:34:56.904Z,90.62
2017-11-21T07:37:31.788Z,89.72
2017-11-21T07:40:11.531Z,88.87
2017-11-21T07:42:45.901Z,87.96
2017-11-21T07:45:20.371Z,88.06
2017-11-21T07:47:54.765Z,87.78
2017-11-21T07:50:29.202Z,87.69
2017-11-21T07:53:03.786Z,87.59
2017-11-21T07:55:38.173Z,87.76
2017-11-21T07:58:12.712Z,87.34
2017-11-21T08:00:47.228Z,86.89
2017-11-21T08:03:21.817Z,87.53
2017-11-21T08:05:56.221Z,88.12
2017-11-21T08:08:31.486Z,87.18
2017-11-21T08:11:05.628Z,87.28
2017-11-21T08:13:39.811Z,87.09
2017-11-21T08:16:14.576Z,86.96
2017-11-21T08:18:49.119Z,87.16
2017-11-21T08:21:23.562Z,87.74
2017-11-21T08:23:58.147Z,87.74
2017-11-21T08:26:32.639Z,87.50
2017-11-21T08:29:07.190Z,86.97
2017-11-21T08:31:41.557Z,86.77
2017-11-21T08:34:16.071Z,86.90
2017-11-21T08:36:50.439Z,86.57
2017-11-21T08:39:25.003Z,86.44
2017-11-21T08:41:59.436Z,86.92
2017-11-21T08:44:34.708Z,87.00
2017-11-21T08:47:09.140Z,86.63
2017-11-21T08:49:43.737Z,86.71
2017-11-21T08:52:18.740Z,85.87
2017-11-21T08:54:53.177Z,85.19
2017-11-21T08:57:27.551Z,85.18
2017-11-21T09:00:02.250Z,85.15
2017-11-21T09:02:36.622Z,85.07
2017-11-21T09:05:12.843Z,84.14
2017-11-21T09:07:47.376Z,84.11
2017-11-21T09:10:22.276Z,83.21
2017-11-21T09:12:57.007Z,83.27
2017-11-21T09:15:31.347Z,82.72
2017-11-21T09:18:05.900Z,83.60
2017-11-21T09:20:40.364Z,82.94
2017-11-21T09:23:14.883Z,83.35
2017-11-21T09:25:49.219Z,82.66
2017-11-21T09:28:23.571Z,83.03
2017-11-21T09:30:58.322Z,83.11
2017-11-21T09:33:32.740Z,83.11
2017-11-21T09:36:07.192Z,83.43
2017-11-21T09:38:41.666Z,83.71
2017-11-21T09:41:16.109Z,83.75
2017-11-21T09:43:50.664Z,84.01
2017-11-21T09:46:25.190Z,84.48
2017-11-21T09:48:59.750Z,84.18
2017-11-21T09:51:34.183Z,84.97
2017-11-21T09:54:08.676Z,83.91
2017-11-21T09:56:43.017Z,83.35
2017-11-21T09:59:17.590Z,83.27
2017-11-21T10:01:52.295Z,83.03
2017-11-21T10:04:26.705Z,82.37
2017-11-21T10:07:01.059Z,82.82
2017-11-21T10:09:35.227Z,81.90
2017-11-21T10:12:09.600Z,82.98
2017-11-21T10:14:44.039Z,82.55
2017-11-21T10:17:18.408Z,82.25
2017-11-21T10:19:52.936Z,83.06
2017-11-21T10:22:27.376Z,82.57
2017-11-21T10:25:01.748Z,84.29
2017-11-21T10:27:36.244Z,84.24
2017-11-21T10:30:10.602Z,83.58
2017-11-21T10:32:45.100Z,83.84
2017-11-21T10:35:19.497Z,83.96
2017-11-21T10:37:53.916Z,83.89
2017-11-21T10:40:28.289Z,84.27
2017-11-21T10:43:02.882Z,83.55
2017-11-21T10:45:37.304Z,84.19
2017-11-21T10:48:11.774Z,84.05
2017-11-21T10:50:46.415Z,82.76
2017-11-21T10:53:20.900Z,82.54
2017-11-21T10:55:55.311Z,81.81
2017-11-21T10:58:29.244Z,82.22
2017-11-21T11:01:03.299Z,82.25
2017-11-21T11:03:37.401Z,81.76
2017-11-21T11:06:11.613Z,82.54
2017-11-21T11:08:45.846Z,82.37
2017-11-21T11:11:20.403Z,82.80
2017-11-21T11:13:54.991Z,82.12
2017-11-21T11:16:29.018Z,82.64
2017-11-21T11:19:03.262Z,82.76
2017-11-21T11:21:37.325Z,83.50
2017-11-21T11:24:11.547Z,83.85
2017-11-21T11:26:45.946Z,84.46
2017-11-21T11:29:20.124Z,82.79
2017-11-21T11:31:54.708Z,82.49
2017-11-21T11:34:28.873Z,81.87
2017-11-21T11:37:02.915Z,80.90
2017-11-21T11:39:37.047Z,80.65
2017-11-21T11:42:11.087Z,80.52
2017-11-21T11:44:45.295Z,80.58
2017-11-21T11:47:19.336Z,79.90
2017-11-21T11:49:53.783Z,79.99
2017-11-21T11:52:28.000Z,79.78
2017-11-21T11:55:02.644Z,79.64
2017-11-21T11:57:40.643Z,79.07
2017-11-21T12:00:14.740Z,79.18
2017-11-21T12:02:49.293Z,79.60
2017-11-21T12:05:23.441Z,79.14
2017-11-21T12:07:57.586Z,79.23
2017-11-21T12:10:31.708Z,79.08
2017-11-21T12:13:06.195Z,79.06
2017-11-21T12:15:40.695Z,79.03
2017-11-21T12:18:15.726Z,78.34
2017-11-21T12:20:51.579Z,79.12
2017-11-21T12:23:25.734Z,78.81
2017-11-21T12:25:59.770Z,78.59
2017-11-21T12:28:33.947Z,78.47
2017-11-21T12:31:08.007Z,78.75
2017-11-21T12:33:42.239Z,77.94
2017-11-21T12:36:16.256Z,78.22
2017-11-21T12:38:52.999Z,77.81
2017-11-21T12:41:27.629Z,78.12
2017-11-21T12:44:02.687Z,78.29
2017-11-21T12:46:38.583Z,77.68
2017-11-21T12:49:12.744Z,78.26
2017-11-21T12:51:46.984Z,77.68
2017-11-21T12:54:21.160Z,77.71
2017-11-21T12:56:55.303Z,77.87
2017-11-21T12:59:29.538Z,77.48
2017-11-21T13:02:03.704Z,77.66
2017-11-21T13:04:37.923Z,77.10
2017-11-21T13:07:12.088Z,76.87
2017-11-21T13:09:46.944Z,79.00
2017-11-21T13:12:21.205Z,79.87
2017-11-21T13:14:55.392Z,79.73
2017-11-21T13:17:29.663Z,79.51
2017-11-21T13:20:04.379Z,80.29
2017-11-21T13:22:42.647Z,79.22
2017-11-21T13:25:16.744Z,79.59
2017-11-21T13:27:51.084Z,79.28
2017-11-21T13:30:25.179Z,78.93
2017-11-21T13:32:59.358Z,79.17
2017-11-21T13:35:33.497Z,78.95
2017-11-21T13:38:07.738Z,78.92
2017-11-21T13:40:42.266Z,78.91
2017-11-21T13:43:16.416Z,78.76
2017-11-21T13:45:50.697Z,79.01
2017-11-21T13:48:25.663Z,80.82
2017-11-21T13:50:59.860Z,81.40
2017-11-21T13:53:34.049Z,82.36
2017-11-21T13:56:08.957Z,82.02
2017-11-21T13:58:43.017Z,80.54
2017-11-21T14:01:17.449Z,81.62
2017-11-21T14:03:51.775Z,81.88
2017-11-21T14:06:25.885Z,81.90
2017-11-21T14:08:59.711Z,81.49
2017-11-21T14:11:33.780Z,80.83
2017-11-21T14:14:08.316Z,80.65
2017-11-21T14:16:42.527Z,80.71
2017-11-21T14:19:16.715Z,80.22
2017-11-21T14:21:51.162Z,81.28
2017-11-21T14:24:25.534Z,79.83
2017-11-21T14:26:59.611Z,79.15
2017-11-21T14:29:33.808Z,78.92
2017-11-21T14:32:07.836Z,78.80
2017-11-21T14:34:41.979Z,78.50
2017-11-21T14:37:16.558Z,77.70
2017-11-21T14:39:50.834Z,77.57
2017-11-21T14:42:25.019Z,77.68
2017-11-21T14:44:59.106Z,76.97
2017-11-21T14:47:33.115Z,76.81
2017-11-21T14:50:11.575Z,76.88
2017-11-21T14:52:46.159Z,76.40
2017-11-21T14:55:20.292Z,76.04
2017-11-21T14:57:55.143Z,76.26
2017-11-21T15:00:29.440Z,76.12
2017-11-21T15:03:03.715Z,75.96
2017-11-21T15:05:38.101Z,75.25
2017-11-21T15:08:12.571Z,75.02
2017-11-21T15:10:47.120Z,74.68
2017-11-21T15:13:21.159Z,74.90
2017-11-21T15:15:55.539Z,74.72
2017-11-21T15:18:30.117Z,74.75
2017-11-21T15:21:04.599Z,75.20
2017-11-21T15:23:38.711Z,74.81
2017-11-21T15:26:12.800Z,74.63
2017-11-21T15:28:47.404Z,75.00
2017-11-21T15:31:21.680Z,75.01
2017-11-21T15:33:56.267Z,74.75
2017-11-21T15:36:30.687Z,74.55
2017-11-21T15:39:05.389Z,74.48
2017-11-21T15:41:39.891Z,74.33
2017-11-21T15:44:14.443Z,74.26
2017-11-21T15:46:49.603Z,74.19
2017-11-21T15:49:24.106Z,73.86
2017-11-21T15:51:58.531Z,73.60
2017-11-21T15:54:33.148Z,73.98
2017-11-21T15:57:07.193Z,73.98
2017-11-21T15:59:41.682Z,74.01
2017-11-21T16:02:16.074Z,74.06
2017-11-21T16:04:50.559Z,74.72
2017-11-21T16:07:25.691Z,74.54
2017-11-21T16:10:00.308Z,74.94
2017-11-21T16:12:34.723Z,75.33
2017-11-21T16:15:09.449Z,75.01
2017-11-21T16:17:44.001Z,75.36
2017-11-21T16:20:18.027Z,75.44
2017-11-21T16:22:52.503Z,75.26
2017-11-21T16:25:27.422Z,75.64
2017-11-21T16:28:01.795Z,75.82
2017-11-21T16:30:36.223Z,75.78
2017-11-21T16:33:10.836Z,75.77
2017-11-21T16:35:45.189Z,76.24
2017-11-21T16:38:19.570Z,76.10
2017-11-21T16:40:53.917Z,76.27
2017-11-21T16:43:28.395Z,76.61
2017-11-21T16:46:02.774Z,77.03
2017-11-21T16:48:37.380Z,76.69
2017-11-21T16:51:11.847Z,77.52
2017-11-21T16:53:46.688Z,77.34
2017-11-21T16:56:21.291Z,77.58
2017-11-21T16:58:56.410Z,77.24
2017-11-21T17:01:31.052Z,77.03
2017-11-21T17:04:05.586Z,77.03
2017-11-21T17:06:40.515Z,77.35
2017-11-21T17:09:15.889Z,77.54
2017-11-21T17:11:50.516Z,77.56
2017-11-21T17:14:26.576Z,78.23
2017-11-21T17:17:01.048Z,78.10
2017-11-21T17:19:35.549Z,78.39
2017-11-21T17:22:10.050Z,79.05
2017-11-21T17:24:44.423Z,79.03
2017-11-21T17:27:18.705Z,78.89
2017-11-21T17:29:53.280Z,78.76
2017-11-21T17:32:27.674Z,78.53
2017-11-21T17:35:02.536Z,78.48
2017-11-21T17:37:37.115Z,78.56
2017-11-21T17:40:11.567Z,78.50
2017-11-21T17:42:46.762Z,78.70
2017-11-21T17:45:21.151Z,79.16
2017-11-21T17:47:55.703Z,79.52
2017-11-21T17:50:31.211Z,80.01
2017-11-21T17:53:06.217Z,80.36
2017-11-21T17:55:40.706Z,80.30
2017-11-21T17:58:15.072Z,80.78
2017-11-21T18:00:49.455Z,80.80
2017-11-21T18:03:24.055Z,80.93
2017-11-21T18:05:58.508Z,80.81
2017-11-21T18:08:32.952Z,81.03
2017-11-21T18:11:07.360Z,80.86
2017-11-21T18:13:41.908Z,81.42
2017-11-21T18:16:16.379Z,81.24
2017-11-21T18:18:50.812Z,81.47
2017-11-21T18:21:25.176Z,82.02
2017-11-21T18:23:59.775Z,82.43
2017-11-21T18:26:34.224Z,82.55
2017-11-21T18:29:08.895Z,82.37
2017-11-21T18:31:43.349Z,82.40
2017-11-21T18:34:17.731Z,82.28
2017-11-21T18:36:52.127Z,82.27
2017-11-21T18:39:26.540Z,82.38
2017-11-21T18:42:00.932Z,82.48
2017-11-21T18:44:35.418Z,82.34
2017-11-21T18:47:11.039Z,82.21
2017-11-21T18:49:45.566Z,82.17
2017-11-21T18:52:19.953Z,81.18
2017-11-21T18:54:54.454Z,80.79
2017-11-21T18:57:28.922Z,81.12
2017-11-21T19:00:03.309Z,81.30
2017-11-21T19:02:37.797Z,80.99
2017-11-21T19:05:12.195Z,81.80
2017-11-21T19:07:46.613Z,81.23
2017-11-21T19:10:21.357Z,81.68
2017-11-21T19:12:55.644Z,82.01
2017-11-21T19:15:30.140Z,81.86
2017-11-21T19:18:04.694Z,82.37
2017-11-21T19:20:39.207Z,82.79
2017-11-21T19:23:13.586Z,82.90
2017-11-21T19:25:49.207Z,83.08
2017-11-21T19:28:26.192Z,83.01
2017-11-21T19:31:00.544Z,82.95
2017-11-21T19:33:35.028Z,83.71
2017-11-21T19:36:10.371Z,83.10
2017-11-21T19:38:45.289Z,82.41
2017-11-21T19:41:19.503Z,82.88
2017-11-21T19:43:53.828Z,82.38
2017-11-21T19:46:28.202Z,82.29
2017-11-21T19:49:02.872Z,82.23
2017-11-21T19:51:37.413Z,82.12
2017-11-21T19:54:11.924Z,82.01
2017-11-21T19:56:46.370Z,81.42
2017-11-21T19:59:20.997Z,80.99
2017-11-21T20:01:55.458Z,80.89
2017-11-21T20:04:29.945Z,80.97
2017-11-21T20:07:04.376Z,80.24
2017-11-21T20:09:38.938Z,80.39
2017-11-21T20:12:13.340Z,80.13
2017-11-21T20:14:47.804Z,79.98
2017-11-21T20:17:22.237Z,79.96
2017-11-21T20:19:56.717Z,79.80
2017-11-21T20:22:31.216Z,79.24
2017-11-21T20:25:10.042Z,79.25
2017-11-21T20:27:44.488Z,79.31
2017-11-21T20:30:19.284Z,79.15
2017-11-21T20:32:53.806Z,78.45
2017-11-21T20:35:28.187Z,78.20
2017-11-21T20:38:02.691Z,77.60
2017-11-21T20:40:37.228Z,77.40
2017-11-21T20:43:11.733Z,77.26
2017-11-21T20:45:46.151Z,77.64
2017-11-21T20:48:20.525Z,77.97
2017-11-21T20:50:55.616Z,78.21
2017-11-21T20:53:30.091Z,77.66
2017-11-21T20:56:04.586Z,77.66
2017-11-21T20:58:39.131Z,76.72
2017-11-21T21:01:14.556Z,76.70
2017-11-21T21:03:48.786Z,76.15
2017-11-21T21:06:23.142Z,75.13
2017-11-21T21:08:57.652Z,75.09
2017-11-21T21:11:31.998Z,75.24
2017-11-21T21:14:06.519Z,75.98
2017-11-21T21:16:40.962Z,77.11
2017-11-21T21:19:15.468Z,77.90
2017-11-21T21:21:49.943Z,78.51
2017-11-21T21:24:24.461Z,77.95
2017-11-21T21:26:58.852Z,79.10
2017-11-21T21:29:33.371Z,79.50
2017-11-21T21:32:07.838Z,80.39
2017-11-21T21:34:42.379Z,79.63
2017-11-21T21:37:17.156Z,80.04
2017-11-21T21:39:51.515Z,79.15
2017-11-21T21:42:25.951Z,79.33
2017-11-21T21:45:00.419Z,79.93
2017-11-21T21:47:34.791Z,80.23
2017-11-21T21:50:09.189Z,80.36
2017-11-21T21:52:44.393Z,81.19
2017-11-21T21:55:19.329Z,80.57
2017-11-21T21:57:53.975Z,80.08
2017-11-21T22:00:28.443Z,81.34
2017-11-21T22:03:03.061Z,80.91
2017-11-21T22:05:37.821Z,81.79
2017-11-21T22:08:12.283Z,81.00
2017-11-21T22:10:48.060Z,81.64
2017-11-21T22:13:22.483Z,81.39
2017-11-21T22:15:56.932Z,81.39
2017-11-21T22:18:31.372Z,81.22
2017-11-21T22:21:06.371Z,81.21
2017-11-21T22:23:40.850Z,80.87
2017-11-21T22:26:15.243Z,81.01
2017-11-21T22:28:49.766Z,80.55
2017-11-21T22:31:24.822Z,80.19
2017-11-21T22:33:59.175Z,79.32
2017-11-21T22:36:33.565Z,80.42
2017-11-21T22:39:08.095Z,79.83
2017-11-21T22:41:42.801Z,79.26
2017-11-21T22:44:17.410Z,79.83
2017-11-21T22:46:51.784Z,79.78
2017-11-21T22:49:26.363Z,79.43
2017-11-21T22:52:00.870Z,79.32
2017-11-21T22:54:35.414Z,78.71
2017-11-21T22:57:09.952Z,78.92
2017-11-21T22:59:44.475Z,78.59
2017-11-21T23:02:18.862Z,78.48
2017-11-21T23:04:53.108Z,78.12
2017-11-21T23:07:29.707Z,77.91
2017-11-21T23:10:08.335Z,77.91
2017-11-21T23:12:43.712Z,77.91
2017-11-21T23:15:18.195Z,78.02
2017-11-21T23:17:52.546Z,77.50
2017-11-21T23:20:26.994Z,77.42
2017-11-21T23:23:01.567Z,76.86
2017-11-21T23:25:36.623Z,77.00
2017-11-21T23:28:11.435Z,76.20
2017-11-21T23:30:46.802Z,76.33
2017-11-21T23:33:21.408Z,76.29
2017-11-21T23:35:55.892Z,76.35
2017-11-21T23:38:30.278Z,76.29
2017-11-21T23:41:04.862Z,75.67
2017-11-21T23:43:39.408Z,75.40
2017-11-21T23:46:13.897Z,74.70
2017-11-21T23:48:48.898Z,74.91
2017-11-21T23:51:24.236Z,74.91
2017-11-21T23:53:58.857Z,75.00
2017-11-21T23:56:33.472Z,75.15
2017-11-21T23:59:08.066Z,75.06
